sensor_id;sensor_type;location;lat;lon;timestamp;pressure;altitude;pressure_sealevel;temperature;humidity
23176;BME280;19910;42.652;23.332;2023-07-29T00:00:39;94462.81;;;17.82;66.55
23176;BME280;19910;42.652;23.332;2023-07-29T00:03:06;94468.25;;;17.78;67.33
23176;BME280;19910;42.652;23.332;2023-07-29T00:05:33;94465.50;;;17.74;67.58
23176;BME280;19910;42.652;23.332;2023-07-29T00:08:00;94474.81;;;17.70;67.99
23176;BME280;19910;42.652;23.332;2023-07-29T00:10:27;94465.31;;;17.60;68.92
23176;BME280;19910;42.652;23.332;2023-07-29T00:12:55;94473.84;;;17.55;69.33
23176;BME280;19910;42.652;23.332;2023-07-29T00:15:22;94474.59;;;17.52;68.94
23176;BME280;19910;42.652;23.332;2023-07-29T00:17:48;94471.13;;;17.55;69.31
23176;BME280;19910;42.652;23.332;2023-07-29T00:20:15;94474.19;;;17.50;69.41
23176;BME280;19910;42.652;23.332;2023-07-29T00:22:42;94473.75;;;17.45;69.59
23176;BME280;19910;42.652;23.332;2023-07-29T00:25:09;94461.91;;;17.37;69.50
23176;BME280;19910;42.652;23.332;2023-07-29T00:27:35;94462.00;;;17.44;69.13
23176;BME280;19910;42.652;23.332;2023-07-29T00:30:05;94463.88;;;17.36;69.44
23176;BME280;19910;42.652;23.332;2023-07-29T00:32:32;94468.22;;;17.41;68.71
23176;BME280;19910;42.652;23.332;2023-07-29T00:34:59;94467.50;;;17.44;69.48
23176;BME280;19910;42.652;23.332;2023-07-29T00:37:27;94461.16;;;17.40;69.92
23176;BME280;19910;42.652;23.332;2023-07-29T00:39:54;94465.81;;;17.36;70.20
23176;BME280;19910;42.652;23.332;2023-07-29T00:42:20;94466.53;;;17.29;70.56
23176;BME280;19910;42.652;23.332;2023-07-29T00:44:47;94459.44;;;17.25;70.26
23176;BME280;19910;42.652;23.332;2023-07-29T00:47:16;94459.53;;;17.32;69.74
23176;BME280;19910;42.652;23.332;2023-07-29T00:49:43;94452.47;;;17.31;69.74
23176;BME280;19910;42.652;23.332;2023-07-29T00:52:11;94450.09;;;17.29;69.45
23176;BME280;19910;42.652;23.332;2023-07-29T00:54:38;94450.84;;;17.26;69.23
23176;BME280;19910;42.652;23.332;2023-07-29T00:57:05;94453.97;;;17.25;69.15
23176;BME280;19910;42.652;23.332;2023-07-29T00:59:33;94446.16;;;17.27;69.30
23176;BME280;19910;42.652;23.332;2023-07-29T01:02:01;94445.38;;;17.26;69.16
23176;BME280;19910;42.652;23.332;2023-07-29T01:04:30;94444.69;;;17.33;68.13
23176;BME280;19910;42.652;23.332;2023-07-29T01:07:05;94440.00;;;17.37;67.95
23176;BME280;19910;42.652;23.332;2023-07-29T01:09:41;94445.47;;;17.37;68.61
23176;BME280;19910;42.652;23.332;2023-07-29T01:12:15;94443.84;;;17.29;69.49
23176;BME280;19910;42.652;23.332;2023-07-29T01:14:49;94447.69;;;17.21;70.33
23176;BME280;19910;42.652;23.332;2023-07-29T01:17:22;94451.47;;;17.13;70.54
23176;BME280;19910;42.652;23.332;2023-07-29T01:20:00;94446.75;;;17.10;70.98
23176;BME280;19910;42.652;23.332;2023-07-29T01:22:29;94449.41;;;17.02;71.22
23176;BME280;19910;42.652;23.332;2023-07-29T01:24:58;94451.81;;;17.08;71.02
23176;BME280;19910;42.652;23.332;2023-07-29T01:27:25;94453.06;;;17.14;70.74
23176;BME280;19910;42.652;23.332;2023-07-29T01:29:52;94451.44;;;17.09;70.45
23176;BME280;19910;42.652;23.332;2023-07-29T01:32:25;94462.44;;;17.13;69.21
23176;BME280;19910;42.652;23.332;2023-07-29T01:35:00;94456.22;;;17.16;69.04
23176;BME280;19910;42.652;23.332;2023-07-29T01:37:32;94449.91;;;17.12;70.13
23176;BME280;19910;42.652;23.332;2023-07-29T01:40:01;94447.16;;;17.08;70.34
23176;BME280;19910;42.652;23.332;2023-07-29T01:42:29;94451.41;;;17.05;71.42
23176;BME280;19910;42.652;23.332;2023-07-29T01:44:57;94441.50;;;16.97;71.74
23176;BME280;19910;42.652;23.332;2023-07-29T01:47:23;94451.97;;;16.88;72.63
23176;BME280;19910;42.652;23.332;2023-07-29T01:49:51;94452.69;;;16.85;72.60
23176;BME280;19910;42.652;23.332;2023-07-29T01:52:18;94446.78;;;16.80;73.19
23176;BME280;19910;42.652;23.332;2023-07-29T01:54:45;94452.16;;;16.73;73.52
23176;BME280;19910;42.652;23.332;2023-07-29T01:57:13;94447.22;;;16.85;73.11
23176;BME280;19910;42.652;23.332;2023-07-29T01:59:40;94448.63;;;16.72;73.35
23176;BME280;19910;42.652;23.332;2023-07-29T02:02:07;94451.78;;;16.74;73.32
23176;BME280;19910;42.652;23.332;2023-07-29T02:04:33;94452.09;;;16.69;73.79
23176;BME280;19910;42.652;23.332;2023-07-29T02:07:00;94448.19;;;16.66;73.87
23176;BME280;19910;42.652;23.332;2023-07-29T02:09:27;94455.53;;;16.62;73.97
23176;BME280;19910;42.652;23.332;2023-07-29T02:11:54;94454.59;;;16.55;73.54
23176;BME280;19910;42.652;23.332;2023-07-29T02:14:22;94446.41;;;16.55;73.81
23176;BME280;19910;42.652;23.332;2023-07-29T02:16:49;94453.13;;;16.61;73.73
23176;BME280;19910;42.652;23.332;2023-07-29T02:19:16;94454.59;;;16.55;74.37
23176;BME280;19910;42.652;23.332;2023-07-29T02:21:43;94461.66;;;16.56;74.07
23176;BME280;19910;42.652;23.332;2023-07-29T02:24:10;94467.97;;;16.60;74.24
23176;BME280;19910;42.652;23.332;2023-07-29T02:26:37;94462.50;;;16.60;74.64
23176;BME280;19910;42.652;23.332;2023-07-29T02:29:03;94467.13;;;16.56;74.99
23176;BME280;19910;42.652;23.332;2023-07-29T02:31:31;94461.78;;;16.63;75.06
23176;BME280;19910;42.652;23.332;2023-07-29T02:34:01;94468.88;;;16.67;74.29
23176;BME280;19910;42.652;23.332;2023-07-29T02:36:28;94458.97;;;16.59;74.69
23176;BME280;19910;42.652;23.332;2023-07-29T02:38:54;94464.81;;;16.58;75.10
23176;BME280;19910;42.652;23.332;2023-07-29T02:41:21;94455.44;;;16.59;75.01
23176;BME280;19910;42.652;23.332;2023-07-29T02:43:49;94451.78;;;16.48;75.37
23176;BME280;19910;42.652;23.332;2023-07-29T02:46:16;94456.47;;;16.47;75.39
23176;BME280;19910;42.652;23.332;2023-07-29T02:48:45;94453.25;;;16.42;75.61
23176;BME280;19910;42.652;23.332;2023-07-29T02:51:12;94451.66;;;16.41;75.68
23176;BME280;19910;42.652;23.332;2023-07-29T02:53:39;94454.41;;;16.41;75.08
23176;BME280;19910;42.652;23.332;2023-07-29T02:56:05;94454.09;;;16.46;74.71
23176;BME280;19910;42.652;23.332;2023-07-29T02:58:34;94456.63;;;16.31;76.12
23176;BME280;19910;42.652;23.332;2023-07-29T03:01:01;94463.66;;;16.32;75.57
23176;BME280;19910;42.652;23.332;2023-07-29T03:03:28;94458.69;;;16.38;75.44
23176;BME280;19910;42.652;23.332;2023-07-29T03:05:59;94469.25;;;16.40;75.19
23176;BME280;19910;42.652;23.332;2023-07-29T03:08:26;94468.81;;;16.38;74.97
23176;BME280;19910;42.652;23.332;2023-07-29T03:10:54;94464.50;;;16.37;74.68
23176;BME280;19910;42.652;23.332;2023-07-29T03:13:21;94476.28;;;16.41;74.94
23176;BME280;19910;42.652;23.332;2023-07-29T03:15:48;94480.91;;;16.37;75.00
23176;BME280;19910;42.652;23.332;2023-07-29T03:18:14;94477.69;;;16.31;75.23
23176;BME280;19910;42.652;23.332;2023-07-29T03:20:41;94474.22;;;16.34;74.94
23176;BME280;19910;42.652;23.332;2023-07-29T03:23:09;94477.34;;;16.32;75.18
23176;BME280;19910;42.652;23.332;2023-07-29T03:25:36;94477.84;;;16.42;75.86
23176;BME280;19910;42.652;23.332;2023-07-29T03:28:03;94475.84;;;16.91;74.81
23176;BME280;19910;42.652;23.332;2023-07-29T03:30:30;94479.25;;;17.82;72.70
23176;BME280;19910;42.652;23.332;2023-07-29T03:32:57;94467.91;;;18.82;69.26
23176;BME280;19910;42.652;23.332;2023-07-29T03:35:23;94467.50;;;19.77;65.61
23176;BME280;19910;42.652;23.332;2023-07-29T03:37:50;94461.25;;;20.55;62.73
23176;BME280;19910;42.652;23.332;2023-07-29T03:40:18;94464.94;;;21.50;59.98
23176;BME280;19910;42.652;23.332;2023-07-29T03:42:45;94457.50;;;22.13;57.55
23176;BME280;19910;42.652;23.332;2023-07-29T03:45:12;94463.66;;;22.31;55.92
23176;BME280;19910;42.652;23.332;2023-07-29T03:47:39;94463.88;;;22.54;55.16
23176;BME280;19910;42.652;23.332;2023-07-29T03:50:06;94454.88;;;23.25;53.69
23176;BME280;19910;42.652;23.332;2023-07-29T03:52:33;94454.09;;;23.59;53.00
23176;BME280;19910;42.652;23.332;2023-07-29T03:54:59;94442.50;;;24.25;50.60
23176;BME280;19910;42.652;23.332;2023-07-29T03:57:28;94447.66;;;24.23;50.18
23176;BME280;19910;42.652;23.332;2023-07-29T03:59:55;94442.69;;;24.61;49.36
23176;BME280;19910;42.652;23.332;2023-07-29T04:02:22;94440.47;;;24.99;48.45
23176;BME280;19910;42.652;23.332;2023-07-29T04:04:49;94446.38;;;25.60;46.79
23176;BME280;19910;42.652;23.332;2023-07-29T04:07:16;94444.56;;;26.42;45.31
23176;BME280;19910;42.652;23.332;2023-07-29T04:09:43;94446.69;;;27.15;43.12
23176;BME280;19910;42.652;23.332;2023-07-29T04:12:10;94447.94;;;26.98;44.03
23176;BME280;19910;42.652;23.332;2023-07-29T04:14:40;94459.06;;;26.98;43.52
23176;BME280;19910;42.652;23.332;2023-07-29T04:17:07;94447.66;;;27.38;42.35
23176;BME280;19910;42.652;23.332;2023-07-29T04:19:34;94444.34;;;27.72;42.49
23176;BME280;19910;42.652;23.332;2023-07-29T04:22:00;94447.25;;;27.81;42.30
23176;BME280;19910;42.652;23.332;2023-07-29T04:24:28;94442.50;;;28.32;41.35
23176;BME280;19910;42.652;23.332;2023-07-29T04:26:54;94444.59;;;29.13;39.47
23176;BME280;19910;42.652;23.332;2023-07-29T04:29:21;94439.56;;;27.72;39.87
23176;BME280;19910;42.652;23.332;2023-07-29T04:31:50;94442.72;;;28.50;38.05
23176;BME280;19910;42.652;23.332;2023-07-29T04:34:17;94444.47;;;29.17;37.54
23176;BME280;19910;42.652;23.332;2023-07-29T04:36:44;94442.34;;;30.08;36.85
23176;BME280;19910;42.652;23.332;2023-07-29T04:39:11;94444.88;;;29.28;37.25
23176;BME280;19910;42.652;23.332;2023-07-29T04:41:38;94444.22;;;30.11;35.52
23176;BME280;19910;42.652;23.332;2023-07-29T04:44:05;94453.63;;;29.74;36.05
23176;BME280;19910;42.652;23.332;2023-07-29T04:46:32;94453.38;;;28.77;37.00
23176;BME280;19910;42.652;23.332;2023-07-29T04:49:00;94448.56;;;29.59;35.90
23176;BME280;19910;42.652;23.332;2023-07-29T04:51:27;94450.78;;;29.64;35.33
23176;BME280;19910;42.652;23.332;2023-07-29T04:53:54;94458.06;;;30.46;34.02
23176;BME280;19910;42.652;23.332;2023-07-29T04:56:21;94454.47;;;30.94;33.81
23176;BME280;19910;42.652;23.332;2023-07-29T04:58:48;94471.94;;;29.75;34.96
23176;BME280;19910;42.652;23.332;2023-07-29T05:01:15;94462.34;;;30.28;34.70
23176;BME280;19910;42.652;23.332;2023-07-29T05:03:42;94465.44;;;31.93;32.38
23176;BME280;19910;42.652;23.332;2023-07-29T05:06:10;94457.34;;;31.95;32.10
23176;BME280;19910;42.652;23.332;2023-07-29T05:08:37;94472.31;;;31.64;32.94
23176;BME280;19910;42.652;23.332;2023-07-29T05:11:03;94471.88;;;32.77;31.23
23176;BME280;19910;42.652;23.332;2023-07-29T05:13:30;94463.66;;;33.45;30.29
23176;BME280;19910;42.652;23.332;2023-07-29T05:15:57;94474.19;;;33.74;29.67
23176;BME280;19910;42.652;23.332;2023-07-29T05:18:24;94471.34;;;33.12;31.36
23176;BME280;19910;42.652;23.332;2023-07-29T05:20:51;94479.59;;;33.63;30.36
23176;BME280;19910;42.652;23.332;2023-07-29T05:23:19;94474.69;;;33.49;30.18
23176;BME280;19910;42.652;23.332;2023-07-29T05:25:45;94471.75;;;34.35;29.19
23176;BME280;19910;42.652;23.332;2023-07-29T05:28:12;94478.09;;;33.92;30.67
23176;BME280;19910;42.652;23.332;2023-07-29T05:30:39;94476.34;;;33.79;29.90
23176;BME280;19910;42.652;23.332;2023-07-29T05:33:06;94481.09;;;33.35;30.28
23176;BME280;19910;42.652;23.332;2023-07-29T05:35:33;94480.88;;;34.30;29.12
23176;BME280;19910;42.652;23.332;2023-07-29T05:38:00;94480.09;;;33.38;30.05
23176;BME280;19910;42.652;23.332;2023-07-29T05:40:30;94482.38;;;33.48;30.03
23176;BME280;19910;42.652;23.332;2023-07-29T05:42:56;94490.09;;;33.77;30.14
23176;BME280;19910;42.652;23.332;2023-07-29T05:45:23;94481.25;;;35.02;28.31
23176;BME280;19910;42.652;23.332;2023-07-29T05:47:50;94500.38;;;33.42;30.07
23176;BME280;19910;42.652;23.332;2023-07-29T05:50:17;94487.66;;;34.38;28.95
23176;BME280;19910;42.652;23.332;2023-07-29T05:52:43;94491.72;;;34.67;28.46
23176;BME280;19910;42.652;23.332;2023-07-29T05:55:10;94485.97;;;35.66;27.31
23176;BME280;19910;42.652;23.332;2023-07-29T05:57:38;94486.94;;;35.43;27.83
23176;BME280;19910;42.652;23.332;2023-07-29T06:00:06;94482.88;;;34.44;28.23
23176;BME280;19910;42.652;23.332;2023-07-29T06:02:33;94491.63;;;32.92;30.42
23176;BME280;19910;42.652;23.332;2023-07-29T06:04:59;94494.97;;;32.12;31.47
23176;BME280;19910;42.652;23.332;2023-07-29T06:07:28;94492.03;;;32.58;31.49
23176;BME280;19910;42.652;23.332;2023-07-29T06:09:59;94499.34;;;31.31;33.49
23176;BME280;19910;42.652;23.332;2023-07-29T06:12:25;94484.78;;;32.84;30.69
23176;BME280;19910;42.652;23.332;2023-07-29T06:14:54;94487.81;;;34.20;29.42
23176;BME280;19910;42.652;23.332;2023-07-29T06:17:20;94480.25;;;34.70;28.79
23176;BME280;19910;42.652;23.332;2023-07-29T06:19:47;94478.97;;;36.28;27.12
23176;BME280;19910;42.652;23.332;2023-07-29T06:22:14;94481.44;;;34.49;28.21
23176;BME280;19910;42.652;23.332;2023-07-29T06:24:41;94482.94;;;33.52;29.65
23176;BME280;19910;42.652;23.332;2023-07-29T06:27:07;94482.38;;;34.61;28.85
23176;BME280;19910;42.652;23.332;2023-07-29T06:29:34;94484.84;;;32.75;30.71
23176;BME280;19910;42.652;23.332;2023-07-29T06:32:03;94469.03;;;34.55;28.97
23176;BME280;19910;42.652;23.332;2023-07-29T06:34:30;94473.69;;;35.69;27.63
23176;BME280;19910;42.652;23.332;2023-07-29T06:36:56;94473.72;;;34.29;29.42
23176;BME280;19910;42.652;23.332;2023-07-29T06:39:23;94464.91;;;34.71;27.99
23176;BME280;19910;42.652;23.332;2023-07-29T06:41:50;94465.88;;;34.83;28.22
23176;BME280;19910;42.652;23.332;2023-07-29T06:44:17;94457.84;;;34.46;28.85
23176;BME280;19910;42.652;23.332;2023-07-29T06:46:46;94455.06;;;34.32;28.41
23176;BME280;19910;42.652;23.332;2023-07-29T06:49:15;94451.59;;;34.86;27.98
23176;BME280;19910;42.652;23.332;2023-07-29T06:51:41;94459.03;;;35.45;28.12
23176;BME280;19910;42.652;23.332;2023-07-29T06:54:08;94458.13;;;34.19;28.99
23176;BME280;19910;42.652;23.332;2023-07-29T06:56:35;94463.22;;;34.15;29.56
23176;BME280;19910;42.652;23.332;2023-07-29T06:59:02;94466.56;;;33.51;29.50
23176;BME280;19910;42.652;23.332;2023-07-29T07:01:29;94461.34;;;33.44;29.78
23176;BME280;19910;42.652;23.332;2023-07-29T07:03:56;94459.81;;;34.26;29.75
23176;BME280;19910;42.652;23.332;2023-07-29T07:06:25;94464.00;;;33.62;29.82
23176;BME280;19910;42.652;23.332;2023-07-29T07:08:52;94464.34;;;33.94;29.62
23176;BME280;19910;42.652;23.332;2023-07-29T07:11:18;94460.16;;;33.74;29.33
23176;BME280;19910;42.652;23.332;2023-07-29T07:13:45;94462.03;;;34.07;29.98
23176;BME280;19910;42.652;23.332;2023-07-29T07:16:12;94466.06;;;33.38;30.37
23176;BME280;19910;42.652;23.332;2023-07-29T07:18:39;94459.25;;;34.86;29.25
23176;BME280;19910;42.652;23.332;2023-07-29T07:21:06;94457.84;;;33.49;29.80
23176;BME280;19910;42.652;23.332;2023-07-29T07:23:34;94457.81;;;32.44;30.71
23176;BME280;19910;42.652;23.332;2023-07-29T07:26:01;94462.59;;;32.20;31.69
23176;BME280;19910;42.652;23.332;2023-07-29T07:28:28;94456.16;;;33.66;29.42
23176;BME280;19910;42.652;23.332;2023-07-29T07:30:54;94463.75;;;33.89;28.81
23176;BME280;19910;42.652;23.332;2023-07-29T07:33:21;94453.72;;;34.27;28.19
23176;BME280;19910;42.652;23.332;2023-07-29T07:35:48;94451.66;;;34.92;28.51
23176;BME280;19910;42.652;23.332;2023-07-29T07:38:15;94446.03;;;33.83;29.90
23176;BME280;19910;42.652;23.332;2023-07-29T07:40:52;94445.69;;;33.04;30.46
23176;BME280;19910;42.652;23.332;2023-07-29T07:43:19;94442.81;;;34.20;29.64
23176;BME280;19910;42.652;23.332;2023-07-29T07:45:46;94445.25;;;34.56;29.49
23176;BME280;19910;42.652;23.332;2023-07-29T07:48:13;94454.81;;;33.14;30.51
23176;BME280;19910;42.652;23.332;2023-07-29T07:50:39;94444.31;;;33.00;31.87
23176;BME280;19910;42.652;23.332;2023-07-29T07:53:06;94452.84;;;33.05;31.05
23176;BME280;19910;42.652;23.332;2023-07-29T07:55:33;94451.91;;;32.42;32.45
23176;BME280;19910;42.652;23.332;2023-07-29T07:58:01;94464.81;;;31.34;33.15
23176;BME280;19910;42.652;23.332;2023-07-29T08:00:28;94453.22;;;32.23;32.56
23176;BME280;19910;42.652;23.332;2023-07-29T08:03:06;94443.34;;;32.70;32.01
23176;BME280;19910;42.652;23.332;2023-07-29T08:05:41;94457.25;;;32.13;32.75
23176;BME280;19910;42.652;23.332;2023-07-29T08:08:07;94456.63;;;32.27;33.19
23176;BME280;19910;42.652;23.332;2023-07-29T08:10:34;94452.50;;;31.95;33.03
23176;BME280;19910;42.652;23.332;2023-07-29T08:13:02;94457.09;;;32.35;32.99
23176;BME280;19910;42.652;23.332;2023-07-29T08:15:29;94454.53;;;31.31;34.45
23176;BME280;19910;42.652;23.332;2023-07-29T08:17:56;94458.50;;;29.60;36.68
23176;BME280;19910;42.652;23.332;2023-07-29T08:20:29;94463.78;;;30.11;35.56
23176;BME280;19910;42.652;23.332;2023-07-29T08:23:02;94467.81;;;30.81;34.92
23176;BME280;19910;42.652;23.332;2023-07-29T08:25:32;94466.69;;;31.28;34.85
23176;BME280;19910;42.652;23.332;2023-07-29T08:28:05;94453.66;;;31.70;32.88
23176;BME280;19910;42.652;23.332;2023-07-29T08:30:32;94454.53;;;31.13;34.26
23176;BME280;19910;42.652;23.332;2023-07-29T08:33:02;94461.47;;;29.66;36.77
23176;BME280;19910;42.652;23.332;2023-07-29T08:35:31;94456.22;;;29.90;35.91
23176;BME280;19910;42.652;23.332;2023-07-29T08:38:01;94449.91;;;30.60;35.26
23176;BME280;19910;42.652;23.332;2023-07-29T08:40:29;94453.50;;;29.55;36.67
23176;BME280;19910;42.652;23.332;2023-07-29T08:43:01;94456.13;;;29.37;36.72
23176;BME280;19910;42.652;23.332;2023-07-29T08:45:35;94453.50;;;29.55;36.17
23176;BME280;19910;42.652;23.332;2023-07-29T08:48:04;94436.59;;;30.02;36.44
23176;BME280;19910;42.652;23.332;2023-07-29T08:50:35;94432.84;;;30.36;35.65
23176;BME280;19910;42.652;23.332;2023-07-29T08:53:04;94436.13;;;30.93;34.30
23176;BME280;19910;42.652;23.332;2023-07-29T08:55:37;94441.09;;;30.89;35.57
23176;BME280;19910;42.652;23.332;2023-07-29T08:58:10;94433.75;;;29.72;35.10
23176;BME280;19910;42.652;23.332;2023-07-29T09:00:42;94426.97;;;29.82;34.95
23176;BME280;19910;42.652;23.332;2023-07-29T09:03:10;94438.31;;;29.78;33.72
23176;BME280;19910;42.652;23.332;2023-07-29T09:05:40;94439.56;;;29.21;33.52
23176;BME280;19910;42.652;23.332;2023-07-29T09:08:07;94435.94;;;29.33;34.58
23176;BME280;19910;42.652;23.332;2023-07-29T09:10:35;94428.63;;;29.14;34.64
23176;BME280;19910;42.652;23.332;2023-07-29T09:13:02;94425.56;;;29.99;34.48
23176;BME280;19910;42.652;23.332;2023-07-29T09:15:30;94428.81;;;30.37;32.71
23176;BME280;19910;42.652;23.332;2023-07-29T09:17:59;94430.06;;;30.86;32.19
23176;BME280;19910;42.652;23.332;2023-07-29T09:20:35;94424.94;;;30.93;32.09
23176;BME280;19910;42.652;23.332;2023-07-29T09:23:01;94413.69;;;30.66;33.73
23176;BME280;19910;42.652;23.332;2023-07-29T09:25:29;94416.16;;;30.55;32.86
23176;BME280;19910;42.652;23.332;2023-07-29T09:28:08;94409.13;;;30.10;33.06
23176;BME280;19910;42.652;23.332;2023-07-29T09:30:35;94409.84;;;30.72;32.22
23176;BME280;19910;42.652;23.332;2023-07-29T09:33:06;94408.47;;;31.04;31.55
23176;BME280;19910;42.652;23.332;2023-07-29T09:35:39;94408.19;;;31.12;31.28
23176;BME280;19910;42.652;23.332;2023-07-29T09:38:14;94401.03;;;31.65;31.49
23176;BME280;19910;42.652;23.332;2023-07-29T09:40:43;94400.38;;;31.61;30.90
23176;BME280;19910;42.652;23.332;2023-07-29T09:43:19;94397.88;;;31.82;30.48
23176;BME280;19910;42.652;23.332;2023-07-29T09:45:52;94398.56;;;31.40;31.52
23176;BME280;19910;42.652;23.332;2023-07-29T09:48:22;94389.34;;;31.58;31.65
23176;BME280;19910;42.652;23.332;2023-07-29T09:50:49;94389.22;;;31.70;30.86
23176;BME280;19910;42.652;23.332;2023-07-29T09:53:16;94385.13;;;31.71;31.10
23176;BME280;19910;42.652;23.332;2023-07-29T09:55:47;94383.84;;;31.91;31.31
23176;BME280;19910;42.652;23.332;2023-07-29T09:58:22;94374.72;;;32.14;30.26
23176;BME280;19910;42.652;23.332;2023-07-29T10:00:57;94373.50;;;32.06;29.95
23176;BME280;19910;42.652;23.332;2023-07-29T10:03:28;94378.41;;;31.87;30.06
23176;BME280;19910;42.652;23.332;2023-07-29T10:06:02;94380.13;;;31.85;29.80
23176;BME280;19910;42.652;23.332;2023-07-29T10:08:39;94369.13;;;31.44;30.37
23176;BME280;19910;42.652;23.332;2023-07-29T10:11:06;94372.59;;;32.00;30.10
23176;BME280;19910;42.652;23.332;2023-07-29T10:13:33;94382.03;;;31.60;30.17
23176;BME280;19910;42.652;23.332;2023-07-29T10:16:00;94378.66;;;31.11;30.73
23176;BME280;19910;42.652;23.332;2023-07-29T10:18:30;94377.41;;;31.02;31.28
23176;BME280;19910;42.652;23.332;2023-07-29T10:20:59;94363.38;;;31.48;30.23
23176;BME280;19910;42.652;23.332;2023-07-29T10:23:27;94357.16;;;31.44;29.71
23176;BME280;19910;42.652;23.332;2023-07-29T10:25:58;94363.34;;;30.57;29.97
23176;BME280;19910;42.652;23.332;2023-07-29T10:28:29;94355.28;;;30.59;30.07
23176;BME280;19910;42.652;23.332;2023-07-29T10:30:57;94353.78;;;31.13;30.45
23176;BME280;19910;42.652;23.332;2023-07-29T10:33:24;94348.69;;;31.81;29.46
23176;BME280;19910;42.652;23.332;2023-07-29T10:35:52;94333.97;;;32.04;29.53
23176;BME280;19910;42.652;23.332;2023-07-29T10:38:21;94336.44;;;32.44;28.91
23176;BME280;19910;42.652;23.332;2023-07-29T10:40:51;94332.03;;;32.52;27.45
23176;BME280;19910;42.652;23.332;2023-07-29T10:43:25;94332.72;;;32.05;28.88
23176;BME280;19910;42.652;23.332;2023-07-29T10:45:52;94335.38;;;31.48;28.17
23176;BME280;19910;42.652;23.332;2023-07-29T10:48:41;94333.22;;;31.43;28.57
23176;BME280;19910;42.652;23.332;2023-07-29T10:51:29;94339.47;;;30.74;30.05
23176;BME280;19910;42.652;23.332;2023-07-29T10:53:57;94325.75;;;30.76;29.15
23176;BME280;19910;42.652;23.332;2023-07-29T10:56:28;94331.63;;;30.51;29.36
23176;BME280;19910;42.652;23.332;2023-07-29T10:58:56;94321.13;;;30.73;29.83
23176;BME280;19910;42.652;23.332;2023-07-29T11:01:50;94310.75;;;31.61;29.03
23176;BME280;19910;42.652;23.332;2023-07-29T11:04:24;94299.13;;;31.44;28.43
23176;BME280;19910;42.652;23.332;2023-07-29T11:07:30;94316.28;;;30.83;27.87
23176;BME280;19910;42.652;23.332;2023-07-29T11:10:09;94320.03;;;30.98;27.73
23176;BME280;19910;42.652;23.332;2023-07-29T11:12:44;94312.53;;;31.31;27.96
23176;BME280;19910;42.652;23.332;2023-07-29T11:15:20;94304.25;;;31.46;27.76
23176;BME280;19910;42.652;23.332;2023-07-29T11:17:49;94317.38;;;31.22;27.74
23176;BME280;19910;42.652;23.332;2023-07-29T11:20:17;94310.19;;;31.30;28.02
23176;BME280;19910;42.652;23.332;2023-07-29T11:22:46;94300.88;;;31.42;27.68
23176;BME280;19910;42.652;23.332;2023-07-29T11:25:14;94308.94;;;31.31;27.35
23176;BME280;19910;42.652;23.332;2023-07-29T11:27:42;94297.09;;;31.45;27.15
23176;BME280;19910;42.652;23.332;2023-07-29T11:30:13;94300.88;;;31.42;26.96
23176;BME280;19910;42.652;23.332;2023-07-29T11:32:45;94295.22;;;31.69;27.32
23176;BME280;19910;42.652;23.332;2023-07-29T11:35:14;94288.03;;;32.01;27.27
23176;BME280;19910;42.652;23.332;2023-07-29T11:37:44;94289.94;;;32.28;26.80
23176;BME280;19910;42.652;23.332;2023-07-29T11:40:16;94286.50;;;32.33;27.05
23176;BME280;19910;42.652;23.332;2023-07-29T11:42:43;94281.09;;;32.92;26.71
23176;BME280;19910;42.652;23.332;2023-07-29T11:45:13;94277.59;;;32.97;26.10
23176;BME280;19910;42.652;23.332;2023-07-29T11:47:40;94275.22;;;33.05;26.99
23176;BME280;19910;42.652;23.332;2023-07-29T11:50:09;94270.88;;;33.18;26.70
23176;BME280;19910;42.652;23.332;2023-07-29T11:52:36;94275.53;;;32.83;27.31
23176;BME280;19910;42.652;23.332;2023-07-29T11:55:04;94273.72;;;32.80;27.37
23176;BME280;19910;42.652;23.332;2023-07-29T11:57:35;94273.13;;;32.28;26.31
23176;BME280;19910;42.652;23.332;2023-07-29T12:00:11;94273.22;;;32.10;27.20
23176;BME280;19910;42.652;23.332;2023-07-29T12:02:42;94268.69;;;31.79;27.52
23176;BME280;19910;42.652;23.332;2023-07-29T12:05:11;94269.56;;;31.53;27.93
23176;BME280;19910;42.652;23.332;2023-07-29T12:07:47;94267.44;;;31.81;27.99
23176;BME280;19910;42.652;23.332;2023-07-29T12:10:14;94263.91;;;32.04;27.33
23176;BME280;19910;42.652;23.332;2023-07-29T12:12:49;94263.84;;;32.13;27.17
23176;BME280;19910;42.652;23.332;2023-07-29T12:15:27;94261.56;;;32.02;27.24
23176;BME280;19910;42.652;23.332;2023-07-29T12:17:55;94252.59;;;32.22;26.47
23176;BME280;19910;42.652;23.332;2023-07-29T12:20:28;94264.06;;;32.00;26.73
23176;BME280;19910;42.652;23.332;2023-07-29T12:22:57;94257.13;;;32.20;26.83
23176;BME280;19910;42.652;23.332;2023-07-29T12:25:31;94242.66;;;32.60;26.79
23176;BME280;19910;42.652;23.332;2023-07-29T12:28:03;94243.50;;;32.75;25.84
23176;BME280;19910;42.652;23.332;2023-07-29T12:30:41;94237.25;;;32.80;26.61
23176;BME280;19910;42.652;23.332;2023-07-29T12:33:08;94236.47;;;32.94;25.72
23176;BME280;19910;42.652;23.332;2023-07-29T12:35:38;94235.63;;;33.17;26.09
23176;BME280;19910;42.652;23.332;2023-07-29T12:38:05;94242.56;;;33.22;24.96
23176;BME280;19910;42.652;23.332;2023-07-29T12:40:31;94235.59;;;32.88;25.45
23176;BME280;19910;42.652;23.332;2023-07-29T12:42:58;94240.53;;;32.55;26.01
23176;BME280;19910;42.652;23.332;2023-07-29T12:45:26;94239.66;;;32.25;27.22
23176;BME280;19910;42.652;23.332;2023-07-29T12:47:54;94244.50;;;32.24;26.59
23176;BME280;19910;42.652;23.332;2023-07-29T12:50:20;94239.84;;;32.21;26.66
23176;BME280;19910;42.652;23.332;2023-07-29T12:52:47;94234.56;;;32.14;27.00
23176;BME280;19910;42.652;23.332;2023-07-29T12:55:15;94244.88;;;32.08;26.24
23176;BME280;19910;42.652;23.332;2023-07-29T12:57:41;94248.81;;;31.68;25.75